createdAt,value
2022-10-02T00:00:51.338Z,2.37
2022-10-02T00:02:28.082Z,2.60
2022-10-02T00:04:02.396Z,2.47
2022-10-02T00:05:41.110Z,2.90
2022-10-02T00:07:15.642Z,2.90
2022-10-02T00:08:49.590Z,2.53
2022-10-02T00:10:26.517Z,3.20
2022-10-02T00:12:01.970Z,3.20
2022-10-02T00:13:41.413Z,3.10
2022-10-02T00:15:18.185Z,2.77
2022-10-02T00:16:54.255Z,2.53
2022-10-02T00:18:29.881Z,2.97
2022-10-02T00:20:02.898Z,2.67
2022-10-02T00:22:08.681Z,2.80
2022-10-02T00:23:46.220Z,2.90
2022-10-02T00:25:27.428Z,3.00
2022-10-02T00:27:06.308Z,2.70
2022-10-02T00:28:49.038Z,2.87
2022-10-02T00:30:21.748Z,2.47
2022-10-02T00:32:10.216Z,2.77
2022-10-02T00:33:56.427Z,2.73
2022-10-02T00:36:05.819Z,2.90
2022-10-02T00:37:46.103Z,2.30
2022-10-02T00:39:31.835Z,2.70
2022-10-02T00:41:46.646Z,2.60
2022-10-02T00:43:27.490Z,2.50
2022-10-02T00:45:30.866Z,2.70
2022-10-02T00:47:11.340Z,3.00
2022-10-02T00:49:00.100Z,2.97
2022-10-02T00:50:41.431Z,2.20
2022-10-02T00:52:26.749Z,2.47
2022-10-02T00:54:10.064Z,2.37
2022-10-02T00:56:06.028Z,2.50
2022-10-02T00:57:50.941Z,2.40
2022-10-02T00:59:51.437Z,2.57
2022-10-02T01:01:29.707Z,2.53
2022-10-02T01:03:12.590Z,2.07
2022-10-02T01:04:47.964Z,2.47
2022-10-02T01:06:24.037Z,2.70
2022-10-02T01:07:58.151Z,2.40
2022-10-02T01:09:33.418Z,2.80
2022-10-02T01:11:08.327Z,2.17
2022-10-02T01:12:40.818Z,2.83
2022-10-02T01:14:14.639Z,2.20
2022-10-02T01:15:52.785Z,2.80
2022-10-02T01:17:27.888Z,2.23
2022-10-02T01:19:00.629Z,2.40
2022-10-02T01:20:37.569Z,2.00
2022-10-02T01:22:16.981Z,2.47
2022-10-02T01:23:55.176Z,2.13
2022-10-02T01:25:29.053Z,2.20
2022-10-02T01:27:01.878Z,2.67
2022-10-02T01:28:34.917Z,2.47
2022-10-02T01:30:10.158Z,2.60
2022-10-02T01:31:43.666Z,2.30
2022-10-02T01:33:18.569Z,2.60
2022-10-02T01:34:51.701Z,2.73
2022-10-02T01:36:24.466Z,2.73
2022-10-02T01:37:57.257Z,2.30
2022-10-02T01:39:31.364Z,2.30
2022-10-02T01:41:07.440Z,2.23
2022-10-02T01:42:40.140Z,2.63
2022-10-02T01:44:14.007Z,2.40
2022-10-02T01:45:57.661Z,2.87
2022-10-02T01:47:40.378Z,2.63
2022-10-02T01:49:35.739Z,2.43
2022-10-02T01:51:26.611Z,2.40
2022-10-02T01:53:08.624Z,2.60
2022-10-02T01:54:49.797Z,2.47
2022-10-02T01:56:31.180Z,2.53
2022-10-02T01:58:20.176Z,2.10
2022-10-02T02:00:04.263Z,2.03
2022-10-02T02:01:44.971Z,2.63
2022-10-02T02:03:23.037Z,3.00
2022-10-02T02:05:00.721Z,2.30
2022-10-02T02:06:38.351Z,2.20
2022-10-02T02:08:18.220Z,2.53
2022-10-02T02:09:55.741Z,2.23
2022-10-02T02:11:30.768Z,1.90
2022-10-02T02:13:09.435Z,2.23
2022-10-02T02:14:49.241Z,2.50
2022-10-02T02:16:29.044Z,2.20
2022-10-02T02:18:09.353Z,2.60
2022-10-02T02:19:47.758Z,2.97
2022-10-02T02:21:24.624Z,2.43
2022-10-02T02:23:04.985Z,2.20
2022-10-02T02:24:42.337Z,2.17
2022-10-02T02:26:18.696Z,2.27
2022-10-02T02:27:58.123Z,2.00
2022-10-02T02:29:34.289Z,2.33
2022-10-02T02:31:09.499Z,2.70
2022-10-02T02:32:47.636Z,2.23
2022-10-02T02:34:24.536Z,2.40
2022-10-02T02:36:01.949Z,2.33
2022-10-02T02:37:37.784Z,2.37
2022-10-02T02:39:14.949Z,2.70
2022-10-02T02:40:48.380Z,2.50
2022-10-02T02:42:26.192Z,2.83
2022-10-02T02:44:04.186Z,2.40
2022-10-02T02:45:41.384Z,2.53
2022-10-02T02:47:18.976Z,2.40
2022-10-02T02:48:56.191Z,2.67
2022-10-02T02:50:33.550Z,2.73
2022-10-02T02:52:09.885Z,2.33
2022-10-02T02:53:47.901Z,3.07
2022-10-02T02:55:23.567Z,3.00
2022-10-02T02:56:58.153Z,2.60
2022-10-02T02:58:35.872Z,2.73
2022-10-02T03:00:10.455Z,2.60
2022-10-02T03:01:43.563Z,2.73
2022-10-02T03:03:16.514Z,3.10
2022-10-02T03:04:49.266Z,2.57
2022-10-02T03:06:33.237Z,2.70
2022-10-02T03:08:08.544Z,2.70
2022-10-02T03:09:42.454Z,2.53
2022-10-02T03:11:25.376Z,3.27
2022-10-02T03:13:06.521Z,2.27
2022-10-02T03:15:02.317Z,2.50
2022-10-02T03:16:46.519Z,2.43
2022-10-02T03:18:46.865Z,2.50
2022-10-02T03:20:29.862Z,2.73
2022-10-02T03:22:08.717Z,2.60
2022-10-02T03:23:54.063Z,2.80
2022-10-02T03:25:32.922Z,2.47
2022-10-02T03:27:12.747Z,2.87
2022-10-02T03:28:56.117Z,2.80
2022-10-02T03:30:31.515Z,2.90
2022-10-02T03:32:06.837Z,2.73
2022-10-02T03:33:41.281Z,3.10
2022-10-02T03:35:15.774Z,3.03
2022-10-02T03:36:48.934Z,3.13
2022-10-02T03:38:24.768Z,2.93
2022-10-02T03:39:59.703Z,2.77
2022-10-02T03:41:31.437Z,3.30
2022-10-02T03:43:04.668Z,3.40
2022-10-02T03:44:37.387Z,3.00
2022-10-02T03:46:10.134Z,3.10
2022-10-02T03:47:44.191Z,2.73
2022-10-02T03:49:16.904Z,3.63
2022-10-02T03:50:50.893Z,3.20
2022-10-02T03:52:24.833Z,3.67
2022-10-02T03:53:57.657Z,3.60
2022-10-02T03:55:33.441Z,3.27
2022-10-02T03:57:08.507Z,3.60
2022-10-02T03:58:45.810Z,3.40
2022-10-02T04:00:23.364Z,3.40
2022-10-02T04:01:58.057Z,3.73
2022-10-02T04:03:35.894Z,3.50
2022-10-02T04:05:25.333Z,3.70
2022-10-02T04:07:02.616Z,3.90
2022-10-02T04:08:40.351Z,3.60
2022-10-02T04:10:27.109Z,3.50
2022-10-02T04:12:04.002Z,3.97
2022-10-02T04:13:40.789Z,3.90
2022-10-02T04:15:21.774Z,3.57
2022-10-02T04:17:01.263Z,4.43
2022-10-02T04:18:41.726Z,3.97
2022-10-02T04:20:19.390Z,3.70
2022-10-02T04:21:57.154Z,3.33
2022-10-02T04:23:34.635Z,4.30
2022-10-02T04:25:15.272Z,3.73
2022-10-02T04:26:53.819Z,4.00
2022-10-02T04:28:33.098Z,4.83
2022-10-02T04:30:08.478Z,4.50
2022-10-02T04:31:41.332Z,4.40
2022-10-02T04:33:15.987Z,3.90
2022-10-02T04:34:50.112Z,3.97
2022-10-02T04:36:39.865Z,4.10
2022-10-02T04:38:33.581Z,4.23
2022-10-02T04:40:31.021Z,4.30
2022-10-02T04:42:25.976Z,4.23
2022-10-02T04:44:07.968Z,4.00
2022-10-02T04:45:56.884Z,4.37
2022-10-02T04:47:48.069Z,4.07
2022-10-02T04:49:39.337Z,3.87
2022-10-02T04:51:24.276Z,4.27
2022-10-02T04:53:14.578Z,3.97
2022-10-02T04:55:18.716Z,4.27
2022-10-02T04:57:01.974Z,4.00
2022-10-02T04:58:46.473Z,4.27
2022-10-02T05:00:20.681Z,3.87
2022-10-02T05:02:08.874Z,4.50
2022-10-02T05:04:03.251Z,3.73
2022-10-02T05:05:52.694Z,3.97
2022-10-02T05:07:41.693Z,3.73
2022-10-02T05:09:27.057Z,4.63
2022-10-02T05:11:13.162Z,4.10
2022-10-02T05:12:57.199Z,3.80
2022-10-02T05:15:03.569Z,4.27
2022-10-02T05:16:58.728Z,4.10
2022-10-02T05:18:54.214Z,3.70
2022-10-02T05:20:46.577Z,3.60
2022-10-02T05:22:52.976Z,4.00
2022-10-02T05:24:44.291Z,4.17
2022-10-02T05:26:37.010Z,3.57
2022-10-02T05:28:25.372Z,3.53
2022-10-02T05:30:06.672Z,3.73
2022-10-02T05:31:52.490Z,3.77
2022-10-02T05:33:50.548Z,3.30
2022-10-02T05:35:39.955Z,3.40
2022-10-02T05:37:35.656Z,3.50
2022-10-02T05:39:14.178Z,3.17
2022-10-02T05:40:53.991Z,3.20
2022-10-02T05:42:34.571Z,3.33
2022-10-02T05:44:13.273Z,2.70
2022-10-02T05:45:53.218Z,2.97
2022-10-02T05:47:28.981Z,3.07
2022-10-02T05:49:06.182Z,2.70
2022-10-02T05:50:39.535Z,2.97
2022-10-02T05:52:17.701Z,2.80
2022-10-02T05:53:53.941Z,2.60
2022-10-02T05:55:36.349Z,2.93
2022-10-02T05:57:16.417Z,2.53
2022-10-02T05:58:52.851Z,2.30
2022-10-02T06:00:32.297Z,2.33
2022-10-02T06:02:15.281Z,2.87
2022-10-02T06:03:55.117Z,2.60
2022-10-02T06:05:36.296Z,2.37
2022-10-02T06:07:12.080Z,2.60
2022-10-02T06:08:50.642Z,2.20
2022-10-02T06:10:28.257Z,2.63
2022-10-02T06:12:05.710Z,2.63
2022-10-02T06:13:44.100Z,2.53
2022-10-02T06:15:22.699Z,2.27
2022-10-02T06:16:58.708Z,2.10
2022-10-02T06:18:34.751Z,2.73
2022-10-02T06:20:18.752Z,2.20
2022-10-02T06:21:57.414Z,2.50
2022-10-02T06:23:35.849Z,2.33
2022-10-02T06:25:17.882Z,2.40
2022-10-02T06:26:55.416Z,2.33
2022-10-02T06:28:36.147Z,2.43
2022-10-02T06:30:12.088Z,2.80
2022-10-02T06:31:49.528Z,2.40
2022-10-02T06:33:24.412Z,2.43
2022-10-02T06:34:57.716Z,2.50
2022-10-02T06:37:01.989Z,2.40
2022-10-02T06:38:45.055Z,2.30
2022-10-02T06:40:38.469Z,2.10
2022-10-02T06:42:22.859Z,2.57
2022-10-02T06:44:10.212Z,2.43
2022-10-02T06:45:52.913Z,2.43
2022-10-02T06:47:36.145Z,2.30
2022-10-02T06:49:16.753Z,2.37
2022-10-02T06:50:57.856Z,2.40
2022-10-02T06:52:39.919Z,2.40
2022-10-02T06:54:30.920Z,2.27
2022-10-02T06:56:15.619Z,2.50
2022-10-02T06:58:01.167Z,2.50
2022-10-02T06:59:55.343Z,2.33
2022-10-02T07:01:42.712Z,2.40
2022-10-02T07:03:54.860Z,2.30
2022-10-02T07:05:48.106Z,2.30
2022-10-02T07:07:39.749Z,2.30
2022-10-02T07:09:44.455Z,2.27
2022-10-02T07:11:28.056Z,2.73
2022-10-02T07:13:18.734Z,2.20
2022-10-02T07:15:18.818Z,2.47
2022-10-02T07:17:23.952Z,2.10
2022-10-02T07:19:15.714Z,2.13
2022-10-02T07:20:58.634Z,2.23
2022-10-02T07:22:46.145Z,2.23
2022-10-02T07:24:37.021Z,2.20
2022-10-02T07:26:36.113Z,2.03
2022-10-02T07:28:17.864Z,2.20
2022-10-02T07:29:57.352Z,2.30
2022-10-02T07:31:43.773Z,2.23
2022-10-02T07:33:29.987Z,2.03
2022-10-02T07:35:19.493Z,2.00
2022-10-02T07:37:04.837Z,2.23
2022-10-02T07:38:57.850Z,2.40
2022-10-02T07:40:39.624Z,2.20
2022-10-02T07:42:36.016Z,2.27
2022-10-02T07:44:22.968Z,2.30
2022-10-02T07:46:02.250Z,2.10
2022-10-02T07:47:51.815Z,2.33
2022-10-02T07:49:39.763Z,2.13
2022-10-02T07:51:50.110Z,2.07
2022-10-02T07:53:30.904Z,2.30
2022-10-02T07:55:17.606Z,2.00
2022-10-02T07:56:53.269Z,2.30
2022-10-02T07:58:33.502Z,2.53
2022-10-02T08:00:12.885Z,2.40
2022-10-02T08:01:48.619Z,2.10
2022-10-02T08:03:26.680Z,2.20
2022-10-02T08:05:04.717Z,2.57
2022-10-02T08:06:38.711Z,2.10
2022-10-02T08:08:19.198Z,2.30
2022-10-02T08:09:54.265Z,2.13
2022-10-02T08:11:32.247Z,2.40
2022-10-02T08:13:11.045Z,2.00
2022-10-02T08:14:45.355Z,2.27
2022-10-02T08:16:23.150Z,2.03
2022-10-02T08:18:22.882Z,2.33
2022-10-02T08:20:02.047Z,2.23
2022-10-02T08:21:41.728Z,1.80
2022-10-02T08:23:22.696Z,2.00
2022-10-02T08:24:58.991Z,2.20
2022-10-02T08:26:36.232Z,2.00
2022-10-02T08:28:19.250Z,1.83
2022-10-02T08:29:56.911Z,2.27
2022-10-02T08:31:29.756Z,2.17
2022-10-02T08:33:03.268Z,2.03
2022-10-02T08:34:36.008Z,1.60
2022-10-02T08:36:32.634Z,2.00
2022-10-02T08:38:14.745Z,2.20
2022-10-02T08:40:01.428Z,1.80
2022-10-02T08:42:12.081Z,1.50
2022-10-02T08:44:24.945Z,1.80
2022-10-02T08:46:41.261Z,1.77
2022-10-02T08:49:11.241Z,1.57
2022-10-02T08:51:12.237Z,1.70
2022-10-02T08:53:45.185Z,1.80
2022-10-02T08:55:46.383Z,1.90
2022-10-02T08:57:48.655Z,1.60
2022-10-02T09:00:04.556Z,1.70
2022-10-02T09:02:09.261Z,1.53
2022-10-02T09:04:23.454Z,1.70
2022-10-02T09:06:30.397Z,1.67
2022-10-02T09:08:33.535Z,1.73
2022-10-02T09:10:48.153Z,1.40
2022-10-02T09:12:58.234Z,1.50
2022-10-02T09:14:46.693Z,1.20
2022-10-02T09:16:30.006Z,1.43
2022-10-02T09:18:17.304Z,1.40
2022-10-02T09:20:06.357Z,1.40
2022-10-02T09:21:54.625Z,1.30
2022-10-02T09:24:09.913Z,1.33
2022-10-02T09:25:54.556Z,1.50
2022-10-02T09:28:07.846Z,1.40
2022-10-02T09:30:11.653Z,1.33
2022-10-02T09:32:17.374Z,1.37
2022-10-02T09:34:28.923Z,1.47
2022-10-02T09:36:40.656Z,1.20
2022-10-02T09:38:43.952Z,1.30
2022-10-02T09:40:45.458Z,1.30
2022-10-02T09:42:59.500Z,1.30
2022-10-02T09:45:07.890Z,1.00
2022-10-02T09:47:08.294Z,1.10
2022-10-02T09:49:16.401Z,1.10
2022-10-02T09:51:11.359Z,1.20
2022-10-02T09:53:34.354Z,1.10
2022-10-02T09:55:49.921Z,1.30
2022-10-02T09:58:02.276Z,0.90
2022-10-02T09:59:59.190Z,1.03
2022-10-02T10:02:01.868Z,1.10
2022-10-02T10:03:52.856Z,1.10
2022-10-02T10:05:50.610Z,1.17
2022-10-02T10:07:49.604Z,1.10
2022-10-02T10:10:00.038Z,1.20
2022-10-02T10:11:48.500Z,1.10
2022-10-02T10:14:12.760Z,1.00
2022-10-02T10:16:38.220Z,0.83
2022-10-02T10:18:48.876Z,0.87
2022-10-02T10:20:54.081Z,1.00
2022-10-02T10:22:58.486Z,0.90
2022-10-02T10:25:17.252Z,1.20
2022-10-02T10:27:08.535Z,1.20
2022-10-02T10:29:22.195Z,0.90
2022-10-02T10:31:21.990Z,0.80
2022-10-02T10:33:43.948Z,0.80
2022-10-02T10:35:37.042Z,0.87
2022-10-02T10:37:37.243Z,0.83
2022-10-02T10:39:36.409Z,0.73
2022-10-02T10:41:51.909Z,0.80
2022-10-02T10:44:12.985Z,0.80
2022-10-02T10:46:00.163Z,0.80
2022-10-02T10:48:02.210Z,0.80
2022-10-02T10:50:03.956Z,0.80
2022-10-02T10:51:42.612Z,0.90
2022-10-02T10:53:29.157Z,0.70
2022-10-02T10:55:13.053Z,1.00
2022-10-02T10:56:51.342Z,0.80
2022-10-02T10:58:41.729Z,0.70
2022-10-02T11:00:21.653Z,0.80
2022-10-02T11:02:13.766Z,0.70
2022-10-02T11:04:20.018Z,0.83
2022-10-02T11:06:26.239Z,0.80
2022-10-02T11:08:18.249Z,0.67
2022-10-02T11:10:21.423Z,0.80
2022-10-02T11:12:11.237Z,0.80
2022-10-02T11:13:57.774Z,0.90
2022-10-02T11:15:59.155Z,0.70
2022-10-02T11:17:54.039Z,0.70
2022-10-02T11:19:57.085Z,0.60
2022-10-02T11:21:44.976Z,0.60
2022-10-02T11:23:50.476Z,0.60
2022-10-02T11:25:33.713Z,0.77
2022-10-02T11:27:26.589Z,0.70
2022-10-02T11:29:34.178Z,1.00
2022-10-02T11:31:29.826Z,0.70
2022-10-02T11:33:39.281Z,0.60
2022-10-02T11:35:23.283Z,0.60
2022-10-02T11:37:13.205Z,0.90
2022-10-02T11:39:02.908Z,0.67
2022-10-02T11:40:48.594Z,0.70
2022-10-02T11:42:55.844Z,0.80
2022-10-02T11:44:48.434Z,0.90
2022-10-02T11:46:42.530Z,0.90
2022-10-02T11:48:40.709Z,0.60
2022-10-02T11:50:48.401Z,1.00
2022-10-02T11:53:04.130Z,0.70
2022-10-02T11:54:54.557Z,0.83
2022-10-02T11:57:01.117Z,0.70
2022-10-02T11:58:47.824Z,0.93
2022-10-02T12:00:58.602Z,0.87
2022-10-02T12:02:38.905Z,1.03
2022-10-02T12:04:25.198Z,1.20
2022-10-02T12:06:06.420Z,1.10
2022-10-02T12:07:45.409Z,1.10
2022-10-02T12:09:31.029Z,1.00
2022-10-02T12:11:12.885Z,1.00
2022-10-02T12:12:54.527Z,1.10
2022-10-02T12:14:34.903Z,1.47
2022-10-02T12:16:14.298Z,1.20
2022-10-02T12:18:01.241Z,0.87
2022-10-02T12:20:03.855Z,0.80
2022-10-02T12:22:11.713Z,0.70
2022-10-02T12:24:08.093Z,0.70
2022-10-02T12:26:09.216Z,0.90
2022-10-02T12:27:53.396Z,0.80
2022-10-02T12:29:48.089Z,0.87
2022-10-02T12:31:28.467Z,0.57
2022-10-02T12:33:19.313Z,0.70
2022-10-02T12:35:03.913Z,0.87
2022-10-02T12:36:56.483Z,0.73
2022-10-02T12:38:44.348Z,0.90
2022-10-02T12:40:24.425Z,1.00
2022-10-02T12:42:13.735Z,0.90
2022-10-02T12:44:22.012Z,0.90
2022-10-02T12:46:15.296Z,0.70
2022-10-02T12:48:18.731Z,1.07
2022-10-02T12:50:02.706Z,0.90
2022-10-02T12:51:40.005Z,0.73
2022-10-02T12:53:44.797Z,0.80
2022-10-02T12:56:01.295Z,1.00
2022-10-02T12:57:58.799Z,1.07
2022-10-02T12:59:37.928Z,0.73
2022-10-02T13:01:54.067Z,0.70
2022-10-02T13:03:57.054Z,0.70
2022-10-02T13:06:07.345Z,1.20
2022-10-02T13:08:09.541Z,0.90
2022-10-02T13:09:54.880Z,0.80
2022-10-02T13:11:39.975Z,1.10
2022-10-02T13:13:35.295Z,0.80
2022-10-02T13:15:27.257Z,0.80
2022-10-02T13:17:17.815Z,1.00
2022-10-02T13:19:02.159Z,1.20
2022-10-02T13:20:40.124Z,0.80
2022-10-02T13:22:17.948Z,0.93
2022-10-02T13:24:04.196Z,0.90
2022-10-02T13:25:54.429Z,1.00
2022-10-02T13:27:39.433Z,0.90
2022-10-02T13:29:34.462Z,0.73
2022-10-02T13:31:18.404Z,0.70
2022-10-02T13:33:08.286Z,0.60
2022-10-02T13:35:18.877Z,0.70
2022-10-02T13:37:06.621Z,1.17
2022-10-02T13:39:00.967Z,0.87
2022-10-02T13:40:44.796Z,1.00
2022-10-02T13:42:28.857Z,0.93
2022-10-02T13:44:14.208Z,0.80
2022-10-02T13:45:53.806Z,0.90
2022-10-02T13:47:39.630Z,1.00
2022-10-02T13:49:21.361Z,0.80
2022-10-02T13:51:00.179Z,0.87
2022-10-02T13:52:40.762Z,0.80
2022-10-02T13:54:36.741Z,0.80
2022-10-02T13:56:24.541Z,0.90
2022-10-02T13:58:13.000Z,0.80
2022-10-02T13:59:59.123Z,0.80
2022-10-02T14:01:42.200Z,0.77
2022-10-02T14:03:28.781Z,0.70
2022-10-02T14:05:11.137Z,0.80
2022-10-02T14:06:49.082Z,0.60
2022-10-02T14:08:40.211Z,0.60
2022-10-02T14:10:28.238Z,1.07
2022-10-02T14:12:15.516Z,1.00
2022-10-02T14:14:07.910Z,0.90
2022-10-02T14:15:56.573Z,0.70
2022-10-02T14:17:37.940Z,1.00
2022-10-02T14:19:34.173Z,1.00
2022-10-02T14:21:16.970Z,0.93
2022-10-02T14:23:10.636Z,1.00
2022-10-02T14:25:03.616Z,0.93
2022-10-02T14:26:52.248Z,1.07
2022-10-02T14:28:46.908Z,1.07
2022-10-02T14:30:22.294Z,1.10
2022-10-02T14:32:17.062Z,1.00
2022-10-02T14:34:13.816Z,1.30
2022-10-02T14:35:55.843Z,1.10
2022-10-02T14:37:56.169Z,1.00
2022-10-02T14:39:34.234Z,1.00
2022-10-02T14:41:22.146Z,1.20
2022-10-02T14:43:25.640Z,1.03
2022-10-02T14:45:21.667Z,1.10
2022-10-02T14:47:21.066Z,1.20
2022-10-02T14:49:12.418Z,1.50
2022-10-02T14:51:07.248Z,1.47
2022-10-02T14:53:06.388Z,1.30
2022-10-02T14:55:00.229Z,1.10
2022-10-02T14:57:02.705Z,1.20
2022-10-02T14:58:49.102Z,1.10
2022-10-02T15:00:24.621Z,1.30
2022-10-02T15:02:20.497Z,1.40
2022-10-02T15:04:34.080Z,1.60
2022-10-02T15:06:21.726Z,1.50
2022-10-02T15:07:55.187Z,2.37
2022-10-02T15:09:34.318Z,4.17
2022-10-02T15:11:21.717Z,3.90
2022-10-02T15:13:02.263Z,2.90
2022-10-02T15:14:42.237Z,2.50
2022-10-02T15:16:38.414Z,2.30
2022-10-02T15:18:22.136Z,2.23
2022-10-02T15:20:01.995Z,2.40
2022-10-02T15:21:42.518Z,2.10
2022-10-02T15:23:25.572Z,2.00
2022-10-02T15:25:00.457Z,2.20
2022-10-02T15:26:51.374Z,1.90
2022-10-02T15:28:37.593Z,2.00
2022-10-02T15:30:19.095Z,1.73
2022-10-02T15:32:21.258Z,1.80
2022-10-02T15:34:02.942Z,2.03
2022-10-02T15:35:49.941Z,2.00
2022-10-02T15:37:28.224Z,2.40
2022-10-02T15:39:37.387Z,1.80
2022-10-02T15:41:32.453Z,1.93
2022-10-02T15:43:28.741Z,1.70
2022-10-02T15:45:33.400Z,1.70
2022-10-02T15:47:21.625Z,1.40
2022-10-02T15:49:04.795Z,1.47
2022-10-02T15:50:49.517Z,1.40
2022-10-02T15:52:35.693Z,1.70
2022-10-02T15:54:18.982Z,1.50
2022-10-02T15:56:00.445Z,1.60
2022-10-02T15:57:45.110Z,1.30
2022-10-02T15:59:33.981Z,1.40
2022-10-02T16:01:19.685Z,1.10
2022-10-02T16:03:12.984Z,1.43
2022-10-02T16:04:55.608Z,1.30
2022-10-02T16:06:53.411Z,1.50
2022-10-02T16:08:54.370Z,1.33
2022-10-02T16:10:33.120Z,1.60
2022-10-02T16:12:42.006Z,1.50
2022-10-02T16:14:20.092Z,1.60
2022-10-02T16:15:55.150Z,2.10
2022-10-02T16:17:43.283Z,3.67
2022-10-02T16:19:27.045Z,3.90
2022-10-02T16:21:25.998Z,3.50
2022-10-02T16:23:08.311Z,2.67
2022-10-02T16:24:59.690Z,3.03
2022-10-02T16:27:03.123Z,3.10
2022-10-02T16:28:55.414Z,2.30
2022-10-02T16:30:36.592Z,2.10
2022-10-02T16:32:20.652Z,2.00
2022-10-02T16:34:01.735Z,1.77
2022-10-02T16:36:23.443Z,2.07
2022-10-02T16:38:00.855Z,3.10
2022-10-02T16:39:54.096Z,3.63
2022-10-02T16:41:36.948Z,3.80
2022-10-02T16:43:44.998Z,3.23
2022-10-02T16:45:33.463Z,2.93
2022-10-02T16:47:15.505Z,2.67
2022-10-02T16:48:54.399Z,2.60
2022-10-02T16:50:33.002Z,1.97
2022-10-02T16:52:16.596Z,2.10
2022-10-02T16:53:55.381Z,2.13
2022-10-02T16:55:34.092Z,2.23
2022-10-02T16:57:15.992Z,2.10
2022-10-02T16:59:00.540Z,2.20
2022-10-02T17:00:39.165Z,1.90
2022-10-02T17:02:19.936Z,1.80
2022-10-02T17:04:18.916Z,1.87
2022-10-02T17:05:57.376Z,1.87
2022-10-02T17:07:57.224Z,2.30
2022-10-02T17:09:41.390Z,2.00
2022-10-02T17:11:21.485Z,2.00
2022-10-02T17:13:00.838Z,1.70
2022-10-02T17:14:42.712Z,2.13
2022-10-02T17:16:21.417Z,2.20
2022-10-02T17:18:06.389Z,2.30
2022-10-02T17:19:45.642Z,2.20
2022-10-02T17:21:22.586Z,2.10
2022-10-02T17:23:02.937Z,2.00
2022-10-02T17:24:43.468Z,2.20
2022-10-02T17:26:29.449Z,2.13
2022-10-02T17:28:07.382Z,1.87
2022-10-02T17:29:48.965Z,2.10
2022-10-02T17:31:35.567Z,2.53
2022-10-02T17:33:15.827Z,2.80
2022-10-02T17:34:50.334Z,2.90
2022-10-02T17:36:31.505Z,3.50
2022-10-02T17:38:22.921Z,2.90
2022-10-02T17:40:10.515Z,3.27
2022-10-02T17:41:53.207Z,2.73
2022-10-02T17:43:32.699Z,3.10
2022-10-02T17:45:18.766Z,3.57
2022-10-02T17:47:03.696Z,4.60
2022-10-02T17:48:47.106Z,4.27
2022-10-02T17:50:52.481Z,3.73
2022-10-02T17:52:50.442Z,3.17
2022-10-02T17:55:03.674Z,2.80
2022-10-02T17:57:02.205Z,2.57
2022-10-02T17:58:43.288Z,2.87
2022-10-02T18:00:21.076Z,3.30
2022-10-02T18:02:05.060Z,2.90
2022-10-02T18:03:51.497Z,3.00
2022-10-02T18:05:33.626Z,2.60
2022-10-02T18:07:30.323Z,2.90
2022-10-02T18:09:36.376Z,2.47
2022-10-02T18:11:20.435Z,2.63
2022-10-02T18:13:15.884Z,2.87
2022-10-02T18:15:15.323Z,2.70
2022-10-02T18:17:06.368Z,2.67
2022-10-02T18:18:40.981Z,2.60
2022-10-02T18:20:24.419Z,2.70
2022-10-02T18:22:10.348Z,2.80
2022-10-02T18:24:13.589Z,3.00
2022-10-02T18:26:05.858Z,6.03
2022-10-02T18:27:53.278Z,10.73
2022-10-02T18:29:38.800Z,7.77
2022-10-02T18:31:51.067Z,6.43
2022-10-02T18:33:42.253Z,5.37
2022-10-02T18:35:25.784Z,4.90
2022-10-02T18:37:14.248Z,5.47
2022-10-02T18:38:58.373Z,6.70
2022-10-02T18:40:35.030Z,6.33
2022-10-02T18:42:40.802Z,5.43
2022-10-02T18:44:24.187Z,4.40
2022-10-02T18:46:07.593Z,3.70
2022-10-02T18:47:50.709Z,3.00
2022-10-02T18:49:37.569Z,2.93
2022-10-02T18:51:24.714Z,2.80
2022-10-02T18:53:10.187Z,4.13
2022-10-02T18:54:52.101Z,4.20
2022-10-02T18:56:44.435Z,2.80
2022-10-02T18:58:42.640Z,2.80
2022-10-02T19:00:19.666Z,2.80
2022-10-02T19:02:14.091Z,3.20
2022-10-02T19:04:09.433Z,3.90
2022-10-02T19:05:49.840Z,3.97
2022-10-02T19:07:27.239Z,4.00
2022-10-02T19:09:14.750Z,3.70
2022-10-02T19:10:48.012Z,2.90
2022-10-02T19:12:24.486Z,2.80
2022-10-02T19:14:03.158Z,2.57
2022-10-02T19:15:36.571Z,3.10
2022-10-02T19:17:15.254Z,3.37
2022-10-02T19:18:47.954Z,3.03
2022-10-02T19:20:36.473Z,3.50
2022-10-02T19:22:19.685Z,3.20
2022-10-02T19:23:57.315Z,3.37
2022-10-02T19:25:30.432Z,3.47
2022-10-02T19:27:06.984Z,3.47
2022-10-02T19:28:46.894Z,3.40
2022-10-02T19:30:26.161Z,3.60
2022-10-02T19:32:01.801Z,3.87
2022-10-02T19:33:43.298Z,3.77
2022-10-02T19:35:20.645Z,3.47
2022-10-02T19:36:55.361Z,3.73
2022-10-02T19:38:32.574Z,4.90
2022-10-02T19:40:09.060Z,5.03
2022-10-02T19:41:46.026Z,4.30
2022-10-02T19:43:25.369Z,4.20
2022-10-02T19:45:02.725Z,3.83
2022-10-02T19:46:41.498Z,4.50
2022-10-02T19:48:19.241Z,4.20
2022-10-02T19:49:56.569Z,3.80
2022-10-02T19:51:29.536Z,3.83
2022-10-02T19:53:06.731Z,4.10
2022-10-02T19:54:40.781Z,3.83
2022-10-02T19:56:18.445Z,4.30
2022-10-02T19:57:54.676Z,4.20
2022-10-02T19:59:32.357Z,4.20
2022-10-02T20:01:08.048Z,4.30
2022-10-02T20:02:45.350Z,4.07
2022-10-02T20:04:20.521Z,4.00
2022-10-02T20:05:57.566Z,4.20
2022-10-02T20:07:32.566Z,4.57
2022-10-02T20:09:13.921Z,4.50
2022-10-02T20:10:55.554Z,4.60
2022-10-02T20:12:31.816Z,3.60
2022-10-02T20:14:09.284Z,3.83
2022-10-02T20:16:06.275Z,3.70
2022-10-02T20:17:39.443Z,3.80
2022-10-02T20:19:17.043Z,3.93
2022-10-02T20:20:52.216Z,4.20
2022-10-02T20:22:34.037Z,3.73
2022-10-02T20:24:13.257Z,4.20
2022-10-02T20:25:50.657Z,4.37
2022-10-02T20:27:28.763Z,4.00
2022-10-02T20:29:04.671Z,4.30
2022-10-02T20:30:41.666Z,4.13
2022-10-02T20:32:19.647Z,3.83
2022-10-02T20:33:56.189Z,3.90
2022-10-02T20:35:34.898Z,3.70
2022-10-02T20:37:12.361Z,3.53
2022-10-02T20:38:49.669Z,4.53
2022-10-02T20:40:26.848Z,4.13
2022-10-02T20:42:03.542Z,3.70
2022-10-02T20:43:42.199Z,4.17
2022-10-02T20:45:16.011Z,4.67
2022-10-02T20:47:21.885Z,4.20
2022-10-02T20:49:09.747Z,4.37
2022-10-02T20:50:58.032Z,5.03
2022-10-02T20:52:55.965Z,5.13
2022-10-02T20:54:43.214Z,4.97
2022-10-02T20:56:43.482Z,4.97
2022-10-02T20:58:54.260Z,4.70
2022-10-02T21:00:28.720Z,5.00
2022-10-02T21:02:19.816Z,4.80
2022-10-02T21:04:40.126Z,5.17
2022-10-02T21:06:36.612Z,5.23
2022-10-02T21:08:39.408Z,5.43
2022-10-02T21:10:48.765Z,5.70
2022-10-02T21:12:45.421Z,5.00
2022-10-02T21:14:33.303Z,5.80
2022-10-02T21:16:49.721Z,5.57
2022-10-02T21:18:39.699Z,5.33
2022-10-02T21:20:50.937Z,6.10
2022-10-02T21:23:00.816Z,5.50
2022-10-02T21:25:03.281Z,5.60
2022-10-02T21:26:59.457Z,5.00
2022-10-02T21:28:59.770Z,5.30
2022-10-02T21:30:39.625Z,5.40
2022-10-02T21:32:30.707Z,5.93
2022-10-02T21:34:18.136Z,5.43
2022-10-02T21:35:55.944Z,5.37
2022-10-02T21:37:46.514Z,5.73
2022-10-02T21:39:48.458Z,5.43
2022-10-02T21:41:51.076Z,5.23
2022-10-02T21:44:16.304Z,5.57
2022-10-02T21:46:21.965Z,6.43
2022-10-02T21:48:19.022Z,5.90
2022-10-02T21:50:31.783Z,6.13
2022-10-02T21:52:30.562Z,6.40
2022-10-02T21:54:39.054Z,5.93
2022-10-02T21:56:52.709Z,5.43
2022-10-02T21:59:10.990Z,5.37
2022-10-02T22:01:16.554Z,5.97
2022-10-02T22:03:24.026Z,5.93
2022-10-02T22:05:30.495Z,5.43
2022-10-02T22:07:10.492Z,6.00
2022-10-02T22:09:02.874Z,5.47
2022-10-02T22:10:44.138Z,6.90
2022-10-02T22:12:30.484Z,5.97
2022-10-02T22:14:09.871Z,5.80
2022-10-02T22:15:51.022Z,5.53
2022-10-02T22:17:32.867Z,4.70
2022-10-02T22:19:18.947Z,5.60
2022-10-02T22:21:17.194Z,5.67
2022-10-02T22:23:03.991Z,5.30
2022-10-02T22:24:51.909Z,5.27
2022-10-02T22:26:52.708Z,5.00
2022-10-02T22:28:36.557Z,5.53
2022-10-02T22:30:24.156Z,4.93
2022-10-02T22:32:26.246Z,5.10
2022-10-02T22:34:13.735Z,5.70
2022-10-02T22:36:07.722Z,5.90
2022-10-02T22:37:54.571Z,6.20
2022-10-02T22:39:32.731Z,5.80
2022-10-02T22:41:12.818Z,6.50
2022-10-02T22:42:53.131Z,7.23
2022-10-02T22:44:32.172Z,6.47
2022-10-02T22:46:08.590Z,8.07
2022-10-02T22:47:49.788Z,6.60
2022-10-02T22:49:29.572Z,6.80
2022-10-02T22:51:17.712Z,7.80
2022-10-02T22:52:55.889Z,6.67
2022-10-02T22:54:36.521Z,7.50
2022-10-02T22:56:22.733Z,7.57
2022-10-02T22:58:02.315Z,7.83
2022-10-02T22:59:41.731Z,7.70
2022-10-02T23:01:20.415Z,8.20
2022-10-02T23:02:58.595Z,8.00
2022-10-02T23:04:36.293Z,7.33
2022-10-02T23:06:21.018Z,8.20
2022-10-02T23:08:00.249Z,7.63
2022-10-02T23:09:41.391Z,8.80
2022-10-02T23:11:19.644Z,7.03
2022-10-02T23:13:03.216Z,8.57
2022-10-02T23:14:54.296Z,7.70
2022-10-02T23:16:35.120Z,7.63
2022-10-02T23:18:21.381Z,8.40
2022-10-02T23:19:58.037Z,7.10
2022-10-02T23:21:45.886Z,7.20
2022-10-02T23:23:24.096Z,6.80
2022-10-02T23:25:02.912Z,8.30
2022-10-02T23:26:39.562Z,7.27
2022-10-02T23:28:18.820Z,6.80
2022-10-02T23:29:56.845Z,6.83
2022-10-02T23:31:33.875Z,7.50
2022-10-02T23:33:20.529Z,6.73
2022-10-02T23:35:00.668Z,7.30
2022-10-02T23:36:45.471Z,7.10
2022-10-02T23:38:23.614Z,7.57
2022-10-02T23:40:10.916Z,7.00
2022-10-02T23:41:47.114Z,7.40
2022-10-02T23:43:29.925Z,7.80